createdAt,value
2023-02-14T00:00:57.193Z,100606.00
2023-02-14T00:03:28.264Z,100600.00
2023-02-14T00:06:07.087Z,100604.00
2023-02-14T00:08:40.953Z,100601.00
2023-02-14T00:11:13.265Z,100607.00
2023-02-14T00:14:04.165Z,100601.00
2023-02-14T00:16:35.041Z,100606.00
2023-02-14T00:19:06.023Z,100607.00
2023-02-14T00:21:38.674Z,100616.00
2023-02-14T00:24:22.094Z,100604.00
2023-02-14T00:26:53.564Z,100604.00
2023-02-14T00:29:31.552Z,100601.00
2023-02-14T00:32:02.999Z,100600.00
2023-02-14T00:34:36.491Z,100601.00
2023-02-14T00:37:07.411Z,100610.00
2023-02-14T00:39:38.889Z,100608.00
2023-02-14T00:42:09.859Z,100608.00
2023-02-14T00:44:41.127Z,100600.00
2023-02-14T00:47:12.095Z,100602.00
2023-02-14T00:49:42.966Z,100599.00
2023-02-14T00:52:14.641Z,100605.00
2023-02-14T00:54:45.586Z,100607.00
2023-02-14T00:57:16.499Z,100608.00
2023-02-14T00:59:47.382Z,100612.00
2023-02-14T01:02:18.307Z,100606.00
2023-02-14T01:04:49.229Z,100606.00
2023-02-14T01:07:22.273Z,100607.00
2023-02-14T01:09:53.149Z,100601.00
2023-02-14T01:12:24.101Z,100603.00
2023-02-14T01:14:55.764Z,100618.00
2023-02-14T01:17:27.393Z,100616.00
2023-02-14T01:19:58.297Z,100614.00
2023-02-14T01:22:29.170Z,100613.00
2023-02-14T01:25:00.098Z,100605.00
2023-02-14T01:27:31.269Z,100602.00
2023-02-14T01:30:02.297Z,100603.00
2023-02-14T01:32:33.768Z,100607.00
2023-02-14T01:35:05.022Z,100601.00
2023-02-14T01:37:36.257Z,100600.00
2023-02-14T01:40:10.036Z,100605.00
2023-02-14T01:42:41.042Z,100604.00
2023-02-14T01:45:22.241Z,100603.00
2023-02-14T01:47:56.375Z,100600.00
2023-02-14T01:50:33.401Z,100605.00
2023-02-14T01:53:13.841Z,100600.00
2023-02-14T01:55:52.148Z,100590.00
2023-02-14T01:58:27.120Z,100594.00
2023-02-14T02:00:59.022Z,100600.00
2023-02-14T02:03:54.932Z,100600.00
2023-02-14T02:06:39.089Z,100601.00
2023-02-14T02:09:22.410Z,100600.00
2023-02-14T02:11:53.422Z,100595.00
2023-02-14T02:14:24.529Z,100593.00
2023-02-14T02:17:47.483Z,100597.00
2023-02-14T02:21:23.196Z,100580.00
2023-02-14T02:24:31.651Z,100591.00
2023-02-14T02:27:35.603Z,100580.00
2023-02-14T02:30:30.343Z,100580.00
2023-02-14T02:33:55.557Z,100589.00
2023-02-14T02:37:10.678Z,100595.00
2023-02-14T02:39:59.537Z,100590.00
2023-02-14T02:42:50.408Z,100596.00
2023-02-14T02:45:59.509Z,100593.00
2023-02-14T02:49:01.519Z,100588.00
2023-02-14T02:52:07.659Z,100588.00
2023-02-14T02:54:44.618Z,100581.00
2023-02-14T02:57:24.357Z,100606.00
2023-02-14T02:59:57.671Z,100589.00
2023-02-14T03:02:59.754Z,100578.00
2023-02-14T03:05:31.101Z,100573.00
2023-02-14T03:08:03.501Z,100583.00
2023-02-14T03:10:38.356Z,100589.00
2023-02-14T03:13:55.955Z,100588.00
2023-02-14T03:16:55.423Z,100594.00
2023-02-14T03:20:15.976Z,100596.00
2023-02-14T03:23:09.455Z,100594.00
2023-02-14T03:26:07.463Z,100598.00
2023-02-14T03:29:17.497Z,100597.00
2023-02-14T03:32:00.932Z,100598.00
2023-02-14T03:35:02.020Z,100600.00
2023-02-14T03:37:55.930Z,100598.00
2023-02-14T03:40:34.298Z,100597.00
2023-02-14T03:43:14.629Z,100597.00
2023-02-14T03:45:52.063Z,100600.00
2023-02-14T03:48:25.772Z,100587.00
2023-02-14T03:50:59.808Z,100588.00
2023-02-14T03:53:36.348Z,100594.00
2023-02-14T03:56:13.188Z,100593.00
2023-02-14T03:58:49.161Z,100586.00
2023-02-14T04:01:32.549Z,100590.00
2023-02-14T04:04:06.016Z,100580.00
2023-02-14T04:06:36.918Z,100570.00
2023-02-14T04:09:07.871Z,100569.00
2023-02-14T04:11:39.041Z,100579.00
2023-02-14T04:14:10.022Z,100579.00
2023-02-14T04:16:59.144Z,100588.00
2023-02-14T04:19:30.068Z,100569.00
2023-02-14T04:22:00.927Z,100576.00
2023-02-14T04:24:31.820Z,100579.00
2023-02-14T04:27:11.867Z,100575.00
2023-02-14T04:29:46.810Z,100586.00
2023-02-14T04:32:22.116Z,100573.00
2023-02-14T04:34:53.516Z,100565.00
2023-02-14T04:37:24.533Z,100562.00
2023-02-14T04:39:55.397Z,100573.00
2023-02-14T04:42:26.330Z,100570.00
2023-02-14T04:44:57.251Z,100574.00
2023-02-14T04:47:28.191Z,100571.00
2023-02-14T04:49:59.170Z,100570.00
2023-02-14T04:52:30.053Z,100570.00
2023-02-14T04:55:01.047Z,100564.00
2023-02-14T04:57:32.395Z,100567.00
2023-02-14T05:00:05.320Z,100563.00
2023-02-14T05:02:37.185Z,100570.00
2023-02-14T05:05:08.413Z,100566.00
2023-02-14T05:07:39.370Z,100561.00
2023-02-14T05:10:10.965Z,100561.00
2023-02-14T05:12:42.125Z,100560.00
2023-02-14T05:15:13.038Z,100562.00
2023-02-14T05:17:43.905Z,100568.00
2023-02-14T05:20:14.913Z,100571.00
2023-02-14T05:22:45.888Z,100562.00
2023-02-14T05:25:16.811Z,100572.00
2023-02-14T05:27:47.662Z,100568.00
2023-02-14T05:30:18.847Z,100569.00
2023-02-14T05:32:49.769Z,100573.00
2023-02-14T05:35:20.657Z,100563.00
2023-02-14T05:37:51.538Z,100564.00
2023-02-14T05:42:54.557Z,100566.00
2023-02-14T05:45:25.958Z,100562.00
2023-02-14T05:47:56.861Z,100568.00
2023-02-14T05:50:28.471Z,100568.00
2023-02-14T05:52:59.457Z,100581.00
2023-02-14T05:55:30.526Z,100577.00
2023-02-14T05:58:01.479Z,100575.00
2023-02-14T06:00:32.396Z,100612.00
2023-02-14T06:03:03.733Z,100581.00
2023-02-14T06:05:34.680Z,100593.00
2023-02-14T06:08:05.658Z,100582.00
2023-02-14T06:10:36.528Z,100587.00
2023-02-14T06:13:10.713Z,100594.00
2023-02-14T06:15:41.577Z,100591.00
2023-02-14T06:18:12.561Z,100590.00
2023-02-14T06:20:43.427Z,100592.00
2023-02-14T06:23:14.309Z,100587.00
2023-02-14T06:25:45.155Z,100595.00
2023-02-14T06:28:16.057Z,100588.00
2023-02-14T06:30:47.754Z,100590.00
2023-02-14T06:33:18.721Z,100599.00
2023-02-14T06:35:49.616Z,100628.00
2023-02-14T06:38:20.496Z,100594.00
2023-02-14T06:40:51.353Z,100595.00
2023-02-14T06:43:22.246Z,100600.00
2023-02-14T06:45:53.247Z,100603.00
2023-02-14T06:48:24.274Z,100607.00
2023-02-14T06:50:55.428Z,100606.00
2023-02-14T06:53:26.473Z,100605.00
2023-02-14T06:55:57.768Z,100608.00
2023-02-14T06:58:28.698Z,100605.00
2023-02-14T07:01:00.118Z,100596.00
2023-02-14T07:03:31.334Z,100596.00
2023-02-14T07:06:02.276Z,100593.00
2023-02-14T07:08:33.207Z,100597.00
2023-02-14T07:11:04.279Z,100598.00
2023-02-14T07:13:35.136Z,100602.00
2023-02-14T07:16:06.339Z,100593.00
2023-02-14T07:18:37.805Z,100583.00
2023-02-14T07:21:08.737Z,100592.00
2023-02-14T07:23:39.830Z,100591.00
2023-02-14T07:26:10.757Z,100594.00
2023-02-14T07:28:44.903Z,100592.00
2023-02-14T07:31:17.497Z,100592.00
2023-02-14T07:33:48.439Z,100587.00
2023-02-14T07:36:19.946Z,100592.00
2023-02-14T07:38:50.825Z,100583.00
2023-02-14T07:41:21.727Z,100589.00
2023-02-14T07:43:52.631Z,100583.00
2023-02-14T07:46:23.511Z,100582.00
2023-02-14T07:48:54.420Z,100586.00
2023-02-14T07:51:25.325Z,100575.00
2023-02-14T07:53:56.236Z,100587.00
2023-02-14T07:56:27.219Z,100586.00
2023-02-14T07:58:58.173Z,100587.00
2023-02-14T08:01:29.150Z,100578.00
2023-02-14T08:04:00.119Z,100578.00
2023-02-14T08:06:31.080Z,100571.00
2023-02-14T08:09:02.180Z,100570.00
2023-02-14T08:11:52.189Z,100567.00
2023-02-14T08:14:23.686Z,100572.00
2023-02-14T08:16:54.582Z,100576.00
2023-02-14T08:19:25.442Z,100564.00
2023-02-14T08:21:56.409Z,100565.00
2023-02-14T08:24:27.683Z,100564.00
2023-02-14T08:26:59.418Z,100564.00
2023-02-14T08:29:30.468Z,100568.00
2023-02-14T08:32:01.501Z,100559.00
2023-02-14T08:34:32.441Z,100557.00
2023-02-14T08:37:03.360Z,100552.00
2023-02-14T08:39:34.206Z,100555.00
2023-02-14T08:42:05.970Z,100560.00
2023-02-14T08:44:36.899Z,100562.00
2023-02-14T08:47:07.923Z,100554.00
2023-02-14T08:49:38.808Z,100556.00
2023-02-14T08:52:09.730Z,100542.00
2023-02-14T08:54:40.629Z,100549.00
2023-02-14T08:57:11.530Z,100552.00
2023-02-14T08:59:42.396Z,100544.00
2023-02-14T09:02:13.927Z,100555.00
2023-02-14T09:04:45.492Z,100549.00
2023-02-14T09:07:16.480Z,100545.00
2023-02-14T09:09:47.413Z,100550.00
2023-02-14T09:12:18.506Z,100538.00
2023-02-14T09:14:49.459Z,100544.00
2023-02-14T09:17:21.023Z,100538.00
2023-02-14T09:19:52.002Z,100543.00
2023-02-14T09:22:22.988Z,100523.00
2023-02-14T09:24:53.850Z,100531.00
2023-02-14T09:27:24.796Z,100547.00
2023-02-14T09:29:55.719Z,100519.00
2023-02-14T09:32:27.292Z,100519.00
2023-02-14T09:34:58.204Z,100525.00
2023-02-14T09:37:29.095Z,100510.00
2023-02-14T09:39:59.997Z,100512.00
2023-02-14T09:42:49.030Z,100517.00
2023-02-14T09:45:25.165Z,100511.00
2023-02-14T09:48:13.008Z,100510.00
2023-02-14T09:50:52.142Z,100508.00
2023-02-14T09:53:28.986Z,100495.00
2023-02-14T09:56:25.529Z,100499.00
2023-02-14T09:59:22.837Z,100492.00
2023-02-14T10:02:19.472Z,100496.00
2023-02-14T10:05:30.841Z,100492.00
2023-02-14T10:08:42.937Z,100485.00
2023-02-14T10:11:20.474Z,100491.00
2023-02-14T10:14:12.232Z,100481.00
2023-02-14T10:16:56.340Z,100500.00
2023-02-14T10:19:56.645Z,100473.00
2023-02-14T10:22:46.712Z,100476.00
2023-02-14T10:25:26.555Z,100485.00
2023-02-14T10:27:58.984Z,100463.00
2023-02-14T10:30:40.048Z,100461.00
2023-02-14T10:33:18.702Z,100458.00
2023-02-14T10:36:04.774Z,100454.00
2023-02-14T10:38:53.928Z,100448.00
2023-02-14T10:41:50.524Z,100447.00
2023-02-14T10:45:09.438Z,100448.00
2023-02-14T10:47:59.782Z,100436.00
2023-02-14T10:51:03.312Z,100460.00
2023-02-14T10:53:46.721Z,100429.00
2023-02-14T10:56:29.250Z,100432.00
2023-02-14T10:59:14.282Z,100417.00
2023-02-14T11:01:47.083Z,100413.00
2023-02-14T11:04:21.345Z,100417.00
2023-02-14T11:06:52.793Z,100407.00
2023-02-14T11:09:23.746Z,100415.00
2023-02-14T11:11:59.425Z,100405.00
2023-02-14T11:14:35.892Z,100407.00
2023-02-14T11:17:30.861Z,100406.00
2023-02-14T11:20:23.070Z,100396.00
2023-02-14T11:22:54.002Z,100394.00
2023-02-14T11:25:32.805Z,100388.00
2023-02-14T11:28:10.445Z,100391.00
2023-02-14T11:30:45.818Z,100393.00
2023-02-14T11:33:41.413Z,100378.00
2023-02-14T11:36:15.064Z,100381.00
2023-02-14T11:38:56.339Z,100370.00
2023-02-14T11:41:27.224Z,100361.00
2023-02-14T11:44:22.644Z,100373.00
2023-02-14T11:47:41.482Z,100374.00
2023-02-14T11:50:25.929Z,100361.00
2023-02-14T11:52:57.180Z,100369.00
2023-02-14T11:55:33.735Z,100359.00
2023-02-14T11:58:07.552Z,100353.00
2023-02-14T12:00:38.471Z,100347.00
2023-02-14T12:03:19.227Z,100342.00
2023-02-14T12:05:53.960Z,100342.00
2023-02-14T12:08:29.662Z,100333.00
2023-02-14T12:11:19.494Z,100334.00
2023-02-14T12:13:56.566Z,100324.00
2023-02-14T12:17:15.005Z,100334.00
2023-02-14T12:20:12.487Z,100331.00
2023-02-14T12:22:50.583Z,100312.00
2023-02-14T12:25:27.401Z,100310.00
2023-02-14T12:28:09.317Z,100319.00
2023-02-14T12:30:41.508Z,100305.00
2023-02-14T12:33:23.576Z,100311.00
2023-02-14T12:35:55.597Z,100304.00
2023-02-14T12:39:12.851Z,100305.00
2023-02-14T12:42:12.191Z,100297.00
2023-02-14T12:45:13.977Z,100288.00
2023-02-14T12:48:17.040Z,100288.00
2023-02-14T12:51:25.076Z,100293.00
2023-02-14T12:54:21.530Z,100284.00
2023-02-14T12:57:05.255Z,100276.00
2023-02-14T13:00:17.576Z,100278.00
2023-02-14T13:03:30.486Z,100263.00
2023-02-14T13:06:05.350Z,100264.00
2023-02-14T13:09:22.061Z,100264.00
2023-02-14T13:12:31.888Z,100262.00
2023-02-14T13:15:19.051Z,100256.00
2023-02-14T13:18:01.531Z,100241.00
2023-02-14T13:20:39.183Z,100244.00
2023-02-14T13:23:56.724Z,100256.00
2023-02-14T13:26:33.146Z,100246.00
2023-02-14T13:29:14.263Z,100238.00
2023-02-14T13:31:46.523Z,100238.00
2023-02-14T13:34:34.204Z,100236.00
2023-02-14T13:37:10.785Z,100231.00
2023-02-14T13:39:46.300Z,100228.00
2023-02-14T13:42:48.598Z,100222.00
2023-02-14T13:45:49.352Z,100230.00
2023-02-14T13:48:30.868Z,100221.00
2023-02-14T13:51:08.347Z,100231.00
2023-02-14T13:53:49.535Z,100225.00
2023-02-14T13:56:21.008Z,100225.00
2023-02-14T13:59:30.272Z,100218.00
2023-02-14T14:02:31.771Z,100222.00
2023-02-14T14:05:35.475Z,100214.00
2023-02-14T14:08:21.533Z,100210.00
2023-02-14T14:11:03.138Z,100221.00
2023-02-14T14:13:43.134Z,100217.00
2023-02-14T14:16:28.767Z,100218.00
2023-02-14T14:19:30.568Z,100217.00
2023-02-14T14:22:09.395Z,100210.00
2023-02-14T14:24:57.678Z,100211.00
2023-02-14T14:27:41.430Z,100202.00
2023-02-14T14:30:39.953Z,100212.00
2023-02-14T14:33:33.455Z,100214.00
2023-02-14T14:36:10.277Z,100209.00
2023-02-14T14:38:51.214Z,100215.00
2023-02-14T14:41:29.738Z,100216.00
2023-02-14T14:44:00.973Z,100221.00
2023-02-14T14:46:32.038Z,100210.00
2023-02-14T14:49:04.484Z,100200.00
2023-02-14T14:51:36.223Z,100207.00
2023-02-14T14:54:13.161Z,100207.00
2023-02-14T14:56:57.160Z,100205.00
2023-02-14T14:59:40.527Z,100197.00
2023-02-14T15:02:26.934Z,100202.00
2023-02-14T15:04:57.880Z,100229.00
2023-02-14T15:07:36.411Z,100204.00
2023-02-14T15:10:31.280Z,100202.00
2023-02-14T15:13:20.725Z,100206.00
2023-02-14T15:15:52.020Z,100211.00
2023-02-14T15:18:23.167Z,100200.00
2023-02-14T15:20:54.412Z,100209.00
2023-02-14T15:23:25.608Z,100203.00
2023-02-14T15:25:56.889Z,100206.00
2023-02-14T15:28:33.521Z,100200.00
2023-02-14T15:31:07.247Z,100203.00
2023-02-14T15:33:39.483Z,100205.00
2023-02-14T15:36:20.100Z,100205.00
2023-02-14T15:38:51.396Z,100211.00
2023-02-14T15:41:24.391Z,100210.00
2023-02-14T15:43:57.373Z,100203.00
2023-02-14T15:46:37.334Z,100200.00
2023-02-14T15:49:20.800Z,100198.00
2023-02-14T15:51:51.853Z,100200.00
2023-02-14T15:54:37.380Z,100203.00
2023-02-14T15:57:26.335Z,100205.00
2023-02-14T15:59:57.259Z,100198.00
2023-02-14T16:02:33.312Z,100210.00
2023-02-14T16:05:18.841Z,100202.00
2023-02-14T16:07:56.545Z,100202.00
2023-02-14T16:10:37.559Z,100211.00
2023-02-14T16:13:14.840Z,100202.00
2023-02-14T16:16:09.930Z,100204.00
2023-02-14T16:18:53.528Z,100209.00
2023-02-14T16:21:34.491Z,100197.00
2023-02-14T16:24:10.992Z,100206.00
2023-02-14T16:26:44.649Z,100204.00
2023-02-14T16:29:18.020Z,100207.00
2023-02-14T16:32:14.472Z,100208.00
2023-02-14T16:34:49.264Z,100203.00
2023-02-14T16:37:33.135Z,100212.00
2023-02-14T16:40:13.901Z,100211.00
2023-02-14T16:42:45.182Z,100218.00
2023-02-14T16:45:18.501Z,100222.00
2023-02-14T16:47:51.232Z,100222.00
2023-02-14T16:50:22.823Z,100224.00
2023-02-14T16:52:55.937Z,100221.00
2023-02-14T16:55:30.027Z,100227.00
2023-02-14T16:58:01.625Z,100222.00
2023-02-14T17:00:32.543Z,100224.00
2023-02-14T17:03:06.272Z,100227.00
2023-02-14T17:05:38.913Z,100228.00
2023-02-14T17:08:12.431Z,100232.00
2023-02-14T17:10:44.897Z,100235.00
2023-02-14T17:13:23.600Z,100239.00
2023-02-14T17:15:54.961Z,100230.00
2023-02-14T17:18:26.123Z,100240.00
2023-02-14T17:20:59.263Z,100238.00
2023-02-14T17:23:30.615Z,100247.00
2023-02-14T17:26:01.651Z,100247.00
2023-02-14T17:28:32.576Z,100254.00
2023-02-14T17:31:04.463Z,100251.00
2023-02-14T17:33:35.733Z,100246.00
2023-02-14T17:36:13.609Z,100258.00
2023-02-14T17:38:44.961Z,100246.00
2023-02-14T17:41:23.115Z,100252.00
2023-02-14T17:43:54.937Z,100250.00
2023-02-14T17:46:30.770Z,100254.00
2023-02-14T17:49:02.680Z,100253.00
2023-02-14T17:51:34.278Z,100255.00
2023-02-14T17:54:05.400Z,100248.00
2023-02-14T17:56:36.287Z,100252.00
2023-02-14T17:59:07.161Z,100253.00
2023-02-14T18:01:38.087Z,100262.00
2023-02-14T18:04:09.357Z,100264.00
2023-02-14T18:06:40.396Z,100256.00
2023-02-14T18:09:11.238Z,100253.00
2023-02-14T18:11:42.307Z,100260.00
2023-02-14T18:14:13.161Z,100253.00
2023-02-14T18:16:45.978Z,100250.00
2023-02-14T18:19:17.574Z,100256.00
2023-02-14T18:21:48.587Z,100253.00
2023-02-14T18:24:20.083Z,100254.00
2023-02-14T18:26:51.169Z,100263.00
2023-02-14T18:29:22.780Z,100260.00
2023-02-14T18:31:53.760Z,100253.00
2023-02-14T18:34:24.865Z,100259.00
2023-02-14T18:36:55.733Z,100251.00
2023-02-14T18:39:26.958Z,100261.00
2023-02-14T18:42:00.002Z,100253.00
2023-02-14T18:44:31.542Z,100255.00
2023-02-14T18:47:02.869Z,100257.00
2023-02-14T18:49:33.861Z,100255.00
2023-02-14T18:52:05.103Z,100239.00
2023-02-14T18:54:35.991Z,100241.00
2023-02-14T18:57:08.227Z,100245.00
2023-02-14T18:59:39.315Z,100234.00
2023-02-14T19:02:10.249Z,100236.00
2023-02-14T19:04:41.100Z,100236.00
2023-02-14T19:07:12.049Z,100231.00
2023-02-14T19:09:43.249Z,100228.00
2023-02-14T19:12:14.197Z,100222.00
2023-02-14T19:14:45.146Z,100221.00
2023-02-14T19:17:17.354Z,100221.00
2023-02-14T19:19:48.538Z,100222.00
2023-02-14T19:22:20.438Z,100221.00
2023-02-14T19:24:53.799Z,100211.00
2023-02-14T19:27:24.785Z,100215.00
2023-02-14T19:29:55.657Z,100222.00
2023-02-14T19:32:28.067Z,100216.00
2023-02-14T19:34:59.008Z,100228.00
2023-02-14T19:37:29.987Z,100237.00
2023-02-14T19:40:01.115Z,100214.00
2023-02-14T19:42:32.177Z,100210.00
2023-02-14T19:45:03.733Z,100216.00
2023-02-14T19:47:46.531Z,100221.00
2023-02-14T19:50:20.349Z,100208.00
2023-02-14T19:52:52.501Z,100212.00
2023-02-14T19:55:23.786Z,100198.00
2023-02-14T19:57:55.280Z,100195.00
2023-02-14T20:00:26.151Z,100194.00
2023-02-14T20:03:00.626Z,100196.00
2023-02-14T20:05:31.978Z,100195.00
2023-02-14T20:08:03.065Z,100201.00
2023-02-14T20:10:34.097Z,100203.00
2023-02-14T20:13:05.135Z,100202.00
2023-02-14T20:15:37.555Z,100200.00
2023-02-14T20:18:08.515Z,100196.00
2023-02-14T20:21:02.287Z,100195.00
2023-02-14T20:23:33.913Z,100197.00
2023-02-14T20:26:04.790Z,100201.00
2023-02-14T20:28:35.748Z,100198.00
2023-02-14T20:31:13.692Z,100190.00
2023-02-14T20:33:45.893Z,100188.00
2023-02-14T20:36:17.267Z,100182.00
2023-02-14T20:38:48.413Z,100188.00
2023-02-14T20:41:19.385Z,100189.00
2023-02-14T20:43:50.384Z,100186.00
2023-02-14T20:46:23.054Z,100177.00
2023-02-14T20:48:54.272Z,100173.00
2023-02-14T20:51:26.540Z,100166.00
2023-02-14T20:53:57.662Z,100172.00
2023-02-14T20:56:29.072Z,100165.00
2023-02-14T20:59:03.452Z,100162.00
2023-02-14T21:01:34.727Z,100164.00
2023-02-14T21:04:06.007Z,100160.00
2023-02-14T21:06:39.981Z,100150.00
2023-02-14T21:09:11.081Z,100136.00
2023-02-14T21:11:42.298Z,100129.00
2023-02-14T21:14:13.817Z,100133.00
2023-02-14T21:16:47.410Z,100132.00
2023-02-14T21:19:18.654Z,100141.00
2023-02-14T21:21:49.657Z,100148.00
2023-02-14T21:24:20.538Z,100149.00
2023-02-14T21:26:51.569Z,100148.00
2023-02-14T21:29:22.533Z,100144.00
2023-02-14T21:31:53.951Z,100142.00
2023-02-14T21:34:27.049Z,100142.00
2023-02-14T21:36:58.143Z,100138.00
2023-02-14T21:39:30.994Z,100138.00
2023-02-14T21:42:02.439Z,100132.00
2023-02-14T21:44:53.191Z,100127.00
2023-02-14T21:47:24.478Z,100129.00
2023-02-14T21:50:14.101Z,100133.00
2023-02-14T21:52:45.059Z,100137.00
2023-02-14T21:55:16.116Z,100136.00
2023-02-14T21:57:47.158Z,100143.00
2023-02-14T22:00:18.617Z,100128.00
2023-02-14T22:02:49.814Z,100151.00
2023-02-14T22:05:20.747Z,100129.00
2023-02-14T22:07:51.775Z,100138.00
2023-02-14T22:10:22.760Z,100128.00
2023-02-14T22:12:53.862Z,100136.00
2023-02-14T22:15:24.862Z,100129.00
2023-02-14T22:17:55.737Z,100128.00
2023-02-14T22:20:26.611Z,100128.00
2023-02-14T22:22:57.545Z,100123.00
2023-02-14T22:25:28.677Z,100122.00
2023-02-14T22:28:00.247Z,100124.00
2023-02-14T22:30:31.096Z,100137.00
2023-02-14T22:33:02.060Z,100122.00
2023-02-14T22:35:33.322Z,100112.00
2023-02-14T22:38:04.270Z,100123.00
2023-02-14T22:40:35.659Z,100121.00
2023-02-14T22:43:06.565Z,100138.00
2023-02-14T22:45:37.649Z,100123.00
2023-02-14T22:48:08.953Z,100120.00
2023-02-14T22:50:39.999Z,100116.00
2023-02-14T22:53:10.950Z,100112.00
2023-02-14T22:55:42.177Z,100118.00
2023-02-14T22:58:13.110Z,100115.00
2023-02-14T23:00:44.252Z,100113.00
2023-02-14T23:03:15.186Z,100117.00
2023-02-14T23:05:46.118Z,100117.00
2023-02-14T23:08:17.482Z,100118.00
2023-02-14T23:10:48.609Z,100109.00
2023-02-14T23:13:38.185Z,100114.00
2023-02-14T23:16:28.538Z,100111.00
2023-02-14T23:19:17.900Z,100124.00
2023-02-14T23:21:54.568Z,100119.00
2023-02-14T23:24:25.558Z,100111.00
2023-02-14T23:26:56.606Z,100116.00
2023-02-14T23:29:27.986Z,100107.00
2023-02-14T23:31:58.969Z,100103.00
2023-02-14T23:34:32.322Z,100110.00
2023-02-14T23:37:03.452Z,100110.00
2023-02-14T23:39:36.713Z,100094.00
2023-02-14T23:42:14.610Z,100108.00
2023-02-14T23:44:46.745Z,100107.00
2023-02-14T23:47:18.895Z,100107.00
2023-02-14T23:49:49.763Z,100110.00
2023-02-14T23:52:20.634Z,100102.00
2023-02-14T23:54:51.475Z,100098.00
2023-02-14T23:57:22.380Z,100100.00
2023-02-14T23:59:53.254Z,100102.00
